Buenos Aires, Argentina

5:32 PM ART on March 05, 2015 (GMT -0300)
Chacarita | Change Station
CLOSE
Current Station
Personal Weather Station
Location: Buenos Aires, AUTONOMOUS CITY OF BUENOS AIRES
Elevation: 0 ft
Nearby Weather Stations

Elev 0 ft 34.58 °S, 58.45 °W | Updated 3 seconds ago

Clear
Clear
86.0 °F
Feels Like 87 °F
N
0.0
Wind Variable Wind from North

Today
High -- | Low -- °F
--% Chance of Precip.
Yesterday
High -- | Low -- °F
Precip. -- in
6:44 AM 7:25 PM
Full, 100% visible
Pressure 29.92 in
Visibility -9999.0 miles
Clouds
Heat Index 87 °F
Dew Point 64 °F
Humidity 48%
Rainfall in
Snow Depth Not available.
UV Not available.
Pollen Not available.
Air Quality Not available.
Flu Activity Not available.
METAR SABE 052000Z 11013KT CAVOK 25/17 Q1013

More Conditions Fewer Conditions

Pressure 29.92 in
Visibility -9999.0 miles
Clouds
Heat Index 87 °F
Dew Point 64 °F
Humidity 48%
Rainfall in
Snow Depth Not available.
UV Not available.
Pollen Not available.
Air Quality Not available.
Flu Activity Not available.
METAR SABE 052000Z 11013KT CAVOK 25/17 Q1013

More Conditions Fewer Conditions

10-Day Weather Forecast

Almanac

Astronomy

Mar. 05, 2015 Rise Set
Actual Time
Civil Twilight
Nautical Twilight
Astronomical Twilight
Moon
Length of Visible Light
Length of Day
Tomorrow will be .
, % of the Moon is Illuminated

Today's Extremes

Country Highs Country Lows

Community

WunderPhotos

Upload Photos

1,802,952 photos uploaded!

WunderBlogs® & News

Nearby

Air Quality

  Air Quality AQ Index Pollutant
Not available.

Snow Depth

Station Depth Elevation

Earthquake Activity

City Distance Mag. Time & Date
Minimum magnitude displayed is 2.5.

Coastal Water Temperatures

Place Temperature

Nearby Weather Stations